Indian Village, New York
Current Conditions -  °F | °C
As of 2:54 AM on Tuesday 21 Oct 2014 (Local Time) from KSYR Reporting Station
Drizzle Drizzle  
Wind Chill: 50°   Ceiling: 5500
Heat Index: 50°   Visibility: 9mi
Dew Point: 47°   Wind: 0mph
Humidity: 89%   Direction: NA
Pressure: 29.86"   Gusts: NA
Location:  42.9377°N, 76.1727°W
Report Text: KSYR 210654Z 00000KT 9SM -DZ SCT030 OVC055 10/08 A2986 RMK RAE08DZB08 SLP109 T01020084
Loading
Personal Weather Stations






























Interactive Weather Map
Tropical Storm Tracking
New forecast layout! Learn more

10-Day Weather Forecast

Advertisements
Track Severe Weather on mobile